TPL Insider Trading

Insider Ownership Percentage: 6.90%
Insider Buying (Last 12 Months): $867,574.41
Insider Selling (Last 12 Months): $808,824.00

Texas Pacific Land Insider Trading History Chart

This chart shows the insider buying and selling history at Texas Pacific Land by year and by quarter.

Skip ChartChart Data in Insider Trading History Table

Texas Pacific Land Share Price & Price History

Current Price: $433.22
Price Change: Price Decrease of -0.405 (-0.09%)
As of 05/4/2026 03:59 PM ET

This chart shows the closing price history over time for TPL up to the past year.

Skip Chart and Table DataPrice Data in Insider Trading History Table
Days: 30 | 90 | 365

Texas Pacific Land Insider Trading History

Transaction DateInsider NameTitleBuy/SellNumber of SharesAverage Share PriceTotal TransactionShares Held After TransactionDetails
2/25/2026Donna E EppsDirectorBuy895$510.45$456,852.752,921View SEC Filing Icon  
2/24/2026Stephanie BuffingtonCAOSell1,608$503.00$808,824.002,133View SEC Filing Icon  
8/21/2025Eric L. OliverDirectorBuy300$293.76$88,127.001,180,800View SEC Filing Icon  
8/14/2025Eric L. OliverDirectorBuy300$305.00$91,500.001,180,200View SEC Filing Icon  
6/25/2025Murray StahlDirectorBuy9$352.84$3,175.5624,705View SEC Filing Icon  
6/25/2025Murray StahlDirectorBuy21$352.48$7,402.011,913,289View SEC Filing Icon  
6/23/2025Murray StahlDirectorBuy9$366.23$3,296.1024,687View SEC Filing Icon  
6/23/2025Murray StahlDirectorBuy21$365.72$7,680.191,913,283View SEC Filing Icon  
6/20/2025Murray StahlDirectorBuy9$360.60$3,245.4324,678View SEC Filing Icon  
6/20/2025Murray StahlDirectorBuy21$360.67$7,574.001,913,280View SEC Filing Icon  
6/18/2025Murray StahlDirectorBuy9$360.17$3,241.5324,669View SEC Filing Icon  
6/18/2025Murray StahlDirectorBuy21$360.03$7,560.561,913,277View SEC Filing Icon  
6/16/2025Murray StahlDirectorBuy9$369.77$3,327.9024,651View SEC Filing Icon  
6/16/2025Murray StahlDirectorBuy21$369.26$7,754.461,913,271View SEC Filing Icon  
6/13/2025Murray StahlDirectorBuy9$372.50$3,352.5024,642View SEC Filing Icon  
6/13/2025Murray StahlDirectorBuy21$372.15$7,815.081,913,268View SEC Filing Icon  
6/11/2025Murray StahlDirectorBuy9$370.31$3,332.8224,624View SEC Filing Icon  
6/11/2025Murray StahlDirectorBuy21$370.49$7,780.361,913,262View SEC Filing Icon  
6/9/2025Murray StahlDirectorBuy9$372.00$3,348.0024,606View SEC Filing Icon  
6/9/2025Murray StahlDirectorBuy21$371.05$7,792.121,913,406View SEC Filing Icon  
6/6/2025Murray StahlDirectorBuy9$370.90$3,338.1324,597View SEC Filing Icon  
6/6/2025Murray StahlDirectorBuy21$371.35$7,798.421,913,403View SEC Filing Icon  
6/4/2025Murray StahlDirectorBuy9$373.51$3,361.5624,579View SEC Filing Icon  
6/4/2025Murray StahlDirectorBuy21$373.51$7,843.781,913,397View SEC Filing Icon  
6/2/2025Murray StahlDirectorBuy9$381.96$3,437.6724,561View SEC Filing Icon  
6/2/2025Murray StahlDirectorBuy21$380.60$7,992.601,913,391View SEC Filing Icon  
5/29/2025Murray StahlDirectorBuy9$406.51$3,658.6224,543View SEC Filing Icon  
5/29/2025Murray StahlDirectorBuy21$405.82$8,522.221,900,137View SEC Filing Icon  
5/27/2025Murray StahlDirectorBuy9$431.47$3,883.2024,525View SEC Filing Icon  
5/27/2025Murray StahlDirectorBuy21$429.68$9,023.211,900,131View SEC Filing Icon  
5/23/2025Murray StahlDirectorBuy9$422.55$3,802.9224,516View SEC Filing Icon  
5/23/2025Murray StahlDirectorBuy21$422.56$8,873.831,900,128View SEC Filing Icon  
5/21/2025Murray StahlDirectorBuy9$460.05$4,140.4524,498View SEC Filing Icon  
5/21/2025Murray StahlDirectorBuy21$460.94$9,679.741,900,122View SEC Filing Icon  
5/19/2025Murray StahlDirectorBuy9$471.57$4,244.1324,480View SEC Filing Icon  
5/19/2025Murray StahlDirectorBuy21$470.84$9,887.641,900,116View SEC Filing Icon  
5/16/2025Murray StahlDirectorBuy9$474.66$4,271.9424,471View SEC Filing Icon  
5/16/2025Murray StahlDirectorBuy21$473.59$9,945.391,900,113View SEC Filing Icon  
5/14/2025Murray StahlDirectorBuy9$459.16$4,132.4424,453View SEC Filing Icon  
5/14/2025Murray StahlDirectorBuy21$459.40$9,647.401,900,107View SEC Filing Icon  
5/12/2025Murray StahlDirectorBuy9$456.16$4,105.4124,435View SEC Filing Icon  
5/9/2025Murray StahlDirectorBuy9$432.81$3,895.3224,426View SEC Filing Icon  
5/7/2025Murray StahlDirectorBuy9$441.67$3,975.0024,408View SEC Filing Icon  
5/5/2025Murray StahlDirectorBuy9$439.45$3,955.0224,390View SEC Filing Icon  
5/2/2025Murray StahlDirectorBuy9$443.07$3,987.6024,381View SEC Filing Icon  
4/30/2025Murray StahlDirectorBuy9$433.55$3,901.9524,363View SEC Filing Icon  
4/28/2025Murray StahlDirectorBuy9$448.11$4,033.0224,345View SEC Filing Icon  
4/25/2025Murray StahlDirectorBuy9$441.32$3,971.8524,336View SEC Filing Icon  
4/23/2025Murray StahlDirectorBuy9$442.88$3,985.9524,318View SEC Filing Icon  
4/21/2025Murray StahlDirectorBuy9$427.86$3,850.7124,300View SEC Filing Icon  
4/16/2025Murray StahlDirectorBuy9$421.70$3,795.2724,282View SEC Filing Icon  
4/14/2025Murray StahlDirectorBuy9$424.28$3,818.4924,264View SEC Filing Icon  
4/11/2025Murray StahlDirectorBuy9$395.67$3,561.0024,255View SEC Filing Icon  
4/9/2025Murray StahlDirectorBuy9$367.90$3,311.1324,237View SEC Filing Icon  
4/7/2025Murray StahlDirectorBuy9$338.83$3,049.4424,228View SEC Filing Icon  
4/4/2025Murray StahlDirectorBuy9$388.34$3,495.0324,210View SEC Filing Icon  
4/2/2025Murray StahlDirectorBuy9$443.74$3,993.6324,192View SEC Filing Icon  
3/31/2025Murray StahlDirectorBuy9$433.51$3,901.5924,174View SEC Filing Icon  
3/27/2025Murray StahlDirectorBuy9$455.15$4,096.3824,156View SEC Filing Icon  
3/25/2025Murray StahlDirectorBuy21$449.16$9,432.361,905,588View SEC Filing Icon  
3/21/2025Murray StahlDirectorBuy9$451.67$4,065.0024,120View SEC Filing Icon  
3/19/2025Murray StahlDirectorBuy21$451.13$9,473.661,905,576View SEC Filing Icon  
3/17/2025Murray StahlDirectorBuy9$438.61$3,947.4924,084View SEC Filing Icon  
3/14/2025Chris SteddumCFOSell642$438.00$281,193.8610,506View SEC Filing Icon  
3/14/2025Murray StahlDirectorBuy9$423.24$3,809.1324,075View SEC Filing Icon  
3/13/2025Micheal W. DobbsVPSell3,450$423.84$1,462,248.004,179View SEC Filing Icon  
3/12/2025Murray StahlDirectorBuy9$449.75$4,047.7824,057View SEC Filing Icon  
3/10/2025Murray StahlDirectorBuy9$457.20$4,114.7724,039View SEC Filing Icon  
3/7/2025Murray StahlDirectorBuy9$439.07$3,951.6024,030View SEC Filing Icon  
3/5/2025Murray StahlDirectorBuy9$447.44$4,026.9324,012View SEC Filing Icon  
3/3/2025Murray StahlDirectorBuy9$478.48$4,306.2923,994View SEC Filing Icon  
2/28/2025Murray StahlDirectorBuy9$449.09$4,041.7823,985View SEC Filing Icon  
2/25/2025Murray StahlDirectorBuy9$429.51$3,865.5923,958View SEC Filing Icon  
2/20/2025Kinetics Asset Managem HorizonMajor ShareholderBuy3$478.75$1,436.253,501,006View SEC Filing Icon  
2/18/2025Kinetics Asset Managem HorizonMajor ShareholderBuy3$467.57$1,402.703,501,000View SEC Filing Icon  
2/14/2025Kinetics Asset Managem HorizonMajor ShareholderBuy3$453.00$1,359.003,500,997View SEC Filing Icon  
2/12/2025Kinetics Asset Managem HorizonMajor ShareholderBuy3$452.30$1,356.893,500,991View SEC Filing Icon  
2/10/2025Kinetics Asset Managem HorizonMajor ShareholderBuy3$459.80$1,379.393,500,985View SEC Filing Icon  
2/7/2025Kinetics Asset Managem HorizonMajor ShareholderBuy3$453.06$1,359.183,500,982View SEC Filing Icon  
2/5/2025Kinetics Asset Managem HorizonMajor ShareholderBuy3$464.52$1,393.563,500,976View SEC Filing Icon  
2/3/2025Kinetics Asset Managem HorizonMajor ShareholderBuy3$438.69$1,316.073,500,970View SEC Filing Icon  
1/31/2025Kinetics Asset Managem HorizonMajor ShareholderBuy3$438.15$1,314.443,500,967View SEC Filing Icon  
1/29/2025Kinetics Asset Managem HorizonMajor ShareholderBuy3$425.01$1,275.023,500,961View SEC Filing Icon  
1/27/2025Kinetics Asset Managem HorizonMajor ShareholderBuy3$410.12$1,230.353,503,790View SEC Filing Icon  
1/23/2025Kinetics Asset Managem HorizonMajor ShareholderBuy3$475.15$1,425.453,503,784View SEC Filing Icon  
1/21/2025Kinetics Asset Managem HorizonMajor ShareholderBuy3$465.23$1,395.683,503,910View SEC Filing Icon  
1/17/2025Kinetics Asset Managem HorizonMajor ShareholderBuy3$466.54$1,399.623,503,907View SEC Filing Icon  
1/15/2025Kinetics Asset Managem HorizonMajor ShareholderBuy3$466.75$1,400.253,503,901View SEC Filing Icon  
1/13/2025Kinetics Asset Managem HorizonMajor ShareholderBuy3$440.35$1,321.053,503,895View SEC Filing Icon  
1/10/2025Kinetics Asset Managem HorizonMajor ShareholderBuy3$433.59$1,300.783,504,078View SEC Filing Icon  
1/8/2025Kinetics Asset Managem HorizonMajor ShareholderBuy3$418.60$1,255.813,504,075View SEC Filing Icon  
1/6/2025Kinetics Asset Managem HorizonMajor ShareholderBuy3$408.04$1,224.123,504,150View SEC Filing Icon  
1/2/2025Kinetics Asset Managem HorizonMajor ShareholderBuy3$382.86$1,148.573,503,748View SEC Filing Icon  
12/30/2024Kinetics Asset Managem HorizonMajor ShareholderBuy3$378.29$1,134.873,415,200View SEC Filing Icon  
12/26/2024Kinetics Asset Managem HorizonMajor ShareholderBuy3$383.45$1,150.343,415,194View SEC Filing Icon  
12/23/2024Kinetics Asset Managem HorizonMajor ShareholderBuy3$370.25$1,110.763,415,188View SEC Filing Icon  
12/19/2024Kinetics Asset Managem HorizonMajor ShareholderBuy3$369.67$1,109.003,415,182View SEC Filing Icon  
12/17/2024Kinetics Asset Managem HorizonMajor ShareholderBuy3$394.85$1,184.553,415,176View SEC Filing Icon  
12/13/2024Kinetics Asset Managem HorizonMajor ShareholderBuy3$393.56$1,180.673,415,533View SEC Filing Icon  
12/11/2024Kinetics Asset Managem HorizonMajor ShareholderBuy9$427.88$3,850.893,415,521View SEC Filing Icon  
12/9/2024Kinetics Asset Managem HorizonMajor ShareholderBuy9$452.54$4,072.893,415,506View SEC Filing Icon  
12/6/2024Kinetics Asset Managem HorizonMajor ShareholderBuy9$439.84$3,958.563,415,497View SEC Filing Icon  
12/4/2024Kinetics Asset Managem HorizonMajor ShareholderBuy9$519.57$4,676.103,415,479View SEC Filing Icon  
12/2/2024Kinetics Asset Managem HorizonMajor ShareholderBuy9$505.86$4,552.713,415,461View SEC Filing Icon  
11/29/2024Kinetics Asset Managem HorizonMajor ShareholderBuy9$560.34$5,043.093,415,452View SEC Filing Icon  
11/27/2024Kinetics Asset Managem HorizonMajor ShareholderBuy9$526.38$4,737.423,415,443View SEC Filing Icon  
11/25/2024Kinetics Asset Managem HorizonMajor ShareholderBuy9$575.38$5,178.423,415,425View SEC Filing Icon  
11/21/2024Kinetics Asset Managem HorizonMajor ShareholderBuy9$484.30$4,358.703,415,407View SEC Filing Icon  
11/19/2024Kinetics Asset Managem HorizonMajor ShareholderBuy9$468.89$4,219.983,415,389View SEC Filing Icon  
11/15/2024Murray StahlDirectorBuy9$451.45$4,063.0223,544View SEC Filing Icon  
11/13/2024Murray StahlDirectorBuy27$467.58$12,624.751,934,394View SEC Filing Icon  
11/12/2024Stephanie BuffingtonCAOSell630$462.78$291,549.301,752View SEC Filing Icon  
11/11/2024Murray StahlDirectorBuy9$459.74$4,137.6923,508View SEC Filing Icon  
11/8/2024Murray StahlDirectorBuy9$446.11$4,014.9623,499View SEC Filing Icon  
11/6/2024Murray StahlDirectorBuy9$439.98$3,959.7923,481View SEC Filing Icon  
11/4/2024Murray StahlDirectorBuy9$391.00$3,519.0023,463View SEC Filing Icon  
11/1/2024Murray StahlDirectorBuy9$391.33$3,522.0023,454View SEC Filing Icon  
10/30/2024Murray StahlDirectorBuy9$372.30$3,350.7323,436View SEC Filing Icon  
10/28/2024Murray StahlDirectorBuy9$358.59$3,227.3423,418View SEC Filing Icon  
10/25/2024Murray StahlDirectorBuy9$366.57$3,299.1023,409View SEC Filing Icon  
10/23/2024Murray StahlDirectorBuy9$361.85$3,256.6823,391View SEC Filing Icon  
10/21/2024Murray StahlDirectorBuy9$356.58$3,209.2523,373View SEC Filing Icon  
10/18/2024Murray StahlDirectorBuy9$354.59$3,191.3123,364View SEC Filing Icon  
10/16/2024Murray StahlDirectorBuy9$349.65$3,146.8523,346View SEC Filing Icon  
10/14/2024Murray StahlDirectorBuy9$352.71$3,174.4223,328View SEC Filing Icon  
10/11/2024Murray StahlDirectorBuy9$334.67$3,012.0023,319View SEC Filing Icon  
10/9/2024Murray StahlDirectorBuy9$320.10$2,880.8723,301View SEC Filing Icon  
10/7/2024Murray StahlDirectorBuy9$327.67$2,949.0023,283View SEC Filing Icon  
10/4/2024Murray StahlDirectorBuy9$326.00$2,933.9723,274View SEC Filing Icon  
10/2/2024Murray StahlDirectorBuy9$308.33$2,775.0023,256View SEC Filing Icon  
9/30/2024Murray StahlDirectorBuy9$295.99$2,663.9123,238View SEC Filing Icon  
9/27/2024Murray StahlDirectorBuy9$293.77$2,643.9023,229View SEC Filing Icon  
9/25/2024Murray StahlDirectorBuy9$312.51$2,812.5623,211View SEC Filing Icon  
9/23/2024Murray StahlDirectorBuy9$314.00$2,826.0023,193View SEC Filing Icon  
9/20/2024Murray StahlDirectorBuy9$304.53$2,740.8023,184View SEC Filing Icon  
9/18/2024Murray StahlDirectorBuy9$290.75$2,616.7223,166View SEC Filing Icon  
9/16/2024Murray StahlDirectorBuy9$271.70$2,445.3023,148View SEC Filing Icon  
9/13/2024Murray StahlDirectorBuy9$266.15$2,395.3523,139View SEC Filing Icon  
9/11/2024Murray StahlDirectorBuy9$262.68$2,364.1223,121View SEC Filing Icon  
9/9/2024Murray StahlDirectorBuy9$266.69$2,400.1823,103View SEC Filing Icon  
9/5/2024Murray StahlDirectorBuy9$270.00$2,430.0023,085View SEC Filing Icon  
9/3/2024Murray StahlDirectorBuy9$284.59$2,561.3123,067View SEC Filing Icon  
8/30/2024Murray StahlDirectorBuy9$288.67$2,598.0623,058View SEC Filing Icon  
8/28/2024Murray StahlDirectorBuy9$289.34$2,604.0923,040View SEC Filing Icon  
8/26/2024Murray StahlDirectorBuy9$288.33$2,595.0023,022View SEC Filing Icon  
8/23/2024Murray StahlDirectorBuy9$279.75$2,517.7523,013View SEC Filing Icon  
8/21/2024Murray StahlDirectorBuy9$274.97$2,474.7322,995View SEC Filing Icon  
8/19/2024Murray StahlDirectorBuy9$275.19$2,476.7422,977View SEC Filing Icon  
8/15/2024Murray StahlDirectorBuy27$277.40$7,489.711,776,198View SEC Filing Icon  
8/14/2024Kinetics Asset Managem HorizonMajor ShareholderBuy9$273.84$2,464.593,255,366View SEC Filing Icon  
8/12/2024Kinetics Asset Managem HorizonMajor ShareholderBuy9$276.01$2,484.063,255,348View SEC Filing Icon  
8/9/2024Kinetics Asset Managem HorizonMajor ShareholderBuy9$272.64$2,453.763,255,339View SEC Filing Icon  
8/7/2024Kinetics Asset Managem HorizonMajor ShareholderBuy9$262.96$2,366.643,255,321View SEC Filing Icon  
8/5/2024Kinetics Asset Managem HorizonMajor ShareholderBuy9$249.93$2,249.343,255,303View SEC Filing Icon  
8/2/2024Kinetics Asset Managem HorizonMajor ShareholderBuy9$262.00$2,358.033,255,294View SEC Filing Icon  
7/31/2024Kinetics Asset Managem HorizonMajor ShareholderBuy9$279.70$2,517.303,255,276View SEC Filing Icon  
7/29/2024Kinetics Asset Managem HorizonMajor ShareholderBuy9$272.68$2,454.153,255,258View SEC Filing Icon  
7/26/2024Kinetics Asset Managem HorizonMajor ShareholderBuy9$271.26$2,441.343,255,249View SEC Filing Icon  
7/24/2024Kinetics Asset Managem HorizonMajor ShareholderBuy9$269.94$2,429.433,255,231View SEC Filing Icon  
7/22/2024Kinetics Asset Managem HorizonMajor ShareholderBuy9$267.65$2,408.853,255,213View SEC Filing Icon  
7/19/2024Kinetics Asset Managem HorizonMajor ShareholderBuy9$272.30$2,450.703,255,204View SEC Filing Icon  
7/17/2024Kinetics Asset Managem HorizonMajor ShareholderBuy9$276.15$2,485.383,255,186View SEC Filing Icon  
7/15/2024Kinetics Asset Managem HorizonMajor ShareholderBuy9$274.21$2,467.863,255,168View SEC Filing Icon  
7/12/2024Kinetics Asset Managem HorizonMajor ShareholderBuy9$264.50$2,380.473,255,159View SEC Filing Icon  
7/10/2024Kinetics Asset Managem HorizonMajor ShareholderBuy9$252.94$2,276.493,255,147View SEC Filing Icon  
7/1/2024Kinetics Asset Managem HorizonMajor ShareholderBuy9$244.41$2,199.663,255,138View SEC Filing Icon  
6/5/2024Kinetics Asset Managem HorizonMajor ShareholderBuy9$197.25$1,775.283,255,120View SEC Filing Icon  
6/3/2024Kinetics Asset Managem HorizonMajor ShareholderBuy9$199.47$1,795.203,255,102View SEC Filing Icon  
5/30/2024Kinetics Asset Managem HorizonMajor ShareholderBuy9$205.29$1,847.583,255,084View SEC Filing Icon  
5/28/2024Kinetics Asset Managem HorizonMajor ShareholderBuy9$205.16$1,846.443,255,066View SEC Filing Icon  
5/24/2024Kinetics Asset Managem HorizonMajor ShareholderBuy9$203.83$1,834.443,255,057View SEC Filing Icon  
5/22/2024Kinetics Asset Managem HorizonMajor ShareholderBuy9$203.36$1,830.243,255,039View SEC Filing Icon  
5/20/2024Kinetics Asset Managem HorizonMajor ShareholderBuy9$204.87$1,843.863,255,021View SEC Filing Icon  
5/17/2024Kinetics Asset Managem HorizonMajor ShareholderBuy9$203.94$1,835.433,255,012View SEC Filing Icon  
5/15/2024Donald G. CookDirectorBuy30$203.72$6,111.70732View SEC Filing Icon  
5/15/2024Kinetics Asset Managem HorizonMajor ShareholderBuy9$200.69$1,806.213,254,994View SEC Filing Icon  
5/13/2024Kinetics Asset Managem HorizonMajor ShareholderBuy9$202.24$1,820.133,254,976View SEC Filing Icon  
5/10/2024Kinetics Asset Managem HorizonMajor ShareholderBuy9$207.44$1,866.933,254,967View SEC Filing Icon  
5/8/2024Kinetics Asset Managem HorizonMajor ShareholderBuy9$188.04$1,692.333,254,949View SEC Filing Icon  
5/6/2024Kinetics Asset Managem HorizonMajor ShareholderBuy9$189.79$1,708.143,254,931View SEC Filing Icon  
5/3/2024Kinetics Asset Managem HorizonMajor ShareholderBuy9$187.16$1,684.443,254,922View SEC Filing Icon  
5/1/2024Kinetics Asset Managem HorizonMajor ShareholderBuy9$186.23$1,676.073,254,904View SEC Filing Icon  
4/29/2024Kinetics Asset Managem HorizonMajor ShareholderBuy9$200.80$1,807.203,254,886View SEC Filing Icon  
4/26/2024Kinetics Asset Managem HorizonMajor ShareholderBuy9$198.56$1,787.013,254,877View SEC Filing Icon  
4/24/2024Kinetics Asset Managem HorizonMajor ShareholderBuy9$196.34$1,767.033,254,859View SEC Filing Icon  
4/22/2024Kinetics Asset Managem HorizonMajor ShareholderBuy9$195.27$1,757.433,254,841View SEC Filing Icon  
4/19/2024Kinetics Asset Managem HorizonMajor ShareholderBuy9$194.20$1,747.803,254,832View SEC Filing Icon  
4/17/2024Kinetics Asset Managem HorizonMajor ShareholderBuy9$194.99$1,754.883,254,814View SEC Filing Icon  
4/15/2024Murray StahlDirectorBuy9$194.64$1,751.7322,950View SEC Filing Icon  
4/12/2024Murray StahlDirectorBuy9$201.91$1,817.1622,941View SEC Filing Icon  
4/10/2024Murray StahlDirectorBuy9$198.07$1,782.6622,923View SEC Filing Icon  
4/8/2024Murray StahlDirectorBuy9$193.04$1,737.3622,905View SEC Filing Icon  
4/5/2024Murray StahlDirectorBuy9$198.74$1,788.6622,896View SEC Filing Icon  
4/3/2024Murray StahlDirectorBuy9$195.63$1,760.7022,878View SEC Filing Icon  
4/1/2024Murray StahlDirectorBuy9$190.36$1,713.2722,860View SEC Filing Icon  
3/27/2024Murray StahlDirectorBuy9$192.11$1,728.9922,842View SEC Filing Icon  
3/25/2024Murray StahlDirectorBuy27$191.62$5,173.6822,806View SEC Filing Icon  
3/22/2024Murray StahlDirectorBuy27$187.32$5,057.6122,779View SEC Filing Icon  
3/20/2024Murray StahlDirectorBuy27$187.98$5,075.4022,725View SEC Filing Icon  
3/18/2024Murray StahlDirectorBuy81$185.57$15,030.901,775,358View SEC Filing Icon  
3/15/2024Murray StahlDirectorBuy27$185.17$4,999.4722,644View SEC Filing Icon  
3/13/2024Eric L. OliverDirectorBuy900$180.08$162,073.001,179,900View SEC Filing Icon  
3/11/2024Murray StahlDirectorBuy27$172.56$4,659.0622,536View SEC Filing Icon  
3/8/2024Murray StahlDirectorBuy27$169.75$4,583.1622,509View SEC Filing Icon  
3/6/2024Murray StahlDirectorBuy27$165.05$4,456.3222,455View SEC Filing Icon  
3/4/2024Murray StahlDirectorBuy27$170.92$4,614.8722,401View SEC Filing Icon  
3/1/2024Murray StahlDirectorBuy27$173.97$4,697.1622,374View SEC Filing Icon  
2/28/2024Murray StahlDirectorBuy27$171.36$4,626.8122,320View SEC Filing Icon  
2/26/2024Murray StahlDirectorBuy27$173.36$4,680.6922,266View SEC Filing Icon  
2/22/2024Murray StahlDirectorBuy27$173.71$4,690.2622,212View SEC Filing Icon  
2/20/2024Murray StahlDirectorBuy27$165.66$4,472.9422,158View SEC Filing Icon  
2/16/2024Murray StahlDirectorBuy27$167.98$4,535.4322,131View SEC Filing Icon  
2/14/2024Murray StahlDirectorBuy81$159.63$12,930.121,774,764View SEC Filing Icon  
2/12/2024Murray StahlDirectorBuy27$162.93$4,399.0522,023View SEC Filing Icon  
2/9/2024Murray StahlDirectorBuy27$162.90$4,398.3321,996View SEC Filing Icon  
2/7/2024Murray StahlDirectorBuy27$165.65$4,472.5521,942View SEC Filing Icon  
2/2/2024Murray StahlDirectorBuy27$159.79$4,314.4221,861View SEC Filing Icon  
1/31/2024Murray StahlDirectorBuy27$162.37$4,383.9921,807View SEC Filing Icon  
1/29/2024Murray StahlDirectorBuy27$168.98$4,562.5521,753View SEC Filing Icon  
1/26/2024Murray StahlDirectorBuy27$165.41$4,466.0721,726View SEC Filing Icon  
1/24/2024Murray StahlDirectorBuy63$167.29$10,539.481,786,680View SEC Filing Icon  
1/22/2024Murray StahlDirectorBuy27$165.44$4,466.9721,618View SEC Filing Icon  
1/18/2024Murray StahlDirectorBuy27$164.93$4,453.1121,564View SEC Filing Icon  
1/16/2024Murray StahlDirectorBuy27$163.90$4,425.4221,510View SEC Filing Icon  
1/12/2024Murray StahlDirectorBuy27$170.14$4,593.6621,483View SEC Filing Icon  
1/10/2024Murray StahlDirectorBuy81$168.03$13,610.611,786,509View SEC Filing Icon  
1/8/2024Murray StahlDirectorBuy27$170.75$4,610.3121,375View SEC Filing Icon  
1/4/2024Murray StahlDirectorBuy27$172.28$4,651.5021,321View SEC Filing Icon  
1/2/2024Murray StahlDirectorBuy27$178.29$4,813.8321,267View SEC Filing Icon  
12/28/2023Murray StahlDirectorBuy27$177.57$4,794.3620,493View SEC Filing Icon  
12/26/2023Murray StahlDirectorBuy27$182.06$4,915.5320,439View SEC Filing Icon  
12/22/2023Murray StahlDirectorBuy27$179.53$4,847.4020,412View SEC Filing Icon  
12/20/2023Murray StahlDirectorBuy27$179.30$4,841.0720,358View SEC Filing Icon  
12/18/2023Murray StahlDirectorBuy27$178.04$4,807.1120,304View SEC Filing Icon  
12/15/2023Murray StahlDirectorBuy81$177.47$14,375.071,786,131View SEC Filing Icon  
12/13/2023Kinetics Asset Managem HorizonMajor ShareholderBuy27$174.93$4,723.231,786,077View SEC Filing Icon  
12/11/2023Kinetics Asset Managem HorizonMajor ShareholderBuy27$172.74$4,663.951,786,023View SEC Filing Icon  
12/8/2023Kinetics Asset Managem HorizonMajor ShareholderBuy27$171.79$4,638.361,785,996View SEC Filing Icon  
12/6/2023Kinetics Asset Managem HorizonMajor ShareholderBuy27$165.08$4,457.041,785,942View SEC Filing Icon  
12/4/2023Kinetics Asset Managem HorizonMajor ShareholderBuy27$177.46$4,791.481,785,888View SEC Filing Icon  
12/1/2023Kinetics Asset Managem HorizonMajor ShareholderBuy27$194.03$5,238.841,785,861View SEC Filing Icon  
11/29/2023Kinetics Asset Managem HorizonMajor ShareholderBuy27$183.56$4,956.211,785,807View SEC Filing Icon  
11/27/2023Kinetics Asset Managem HorizonMajor ShareholderBuy27$181.89$4,911.061,785,753View SEC Filing Icon  
11/24/2023Kinetics Asset Managem HorizonMajor ShareholderBuy27$183.33$4,950.001,785,726View SEC Filing Icon  
11/22/2023Kinetics Asset Managem HorizonMajor ShareholderBuy27$182.44$4,926.001,785,699View SEC Filing Icon  
11/20/2023Kinetics Asset Managem HorizonMajor ShareholderBuy27$182.16$4,918.201,785,645View SEC Filing Icon  
11/17/2023Kinetics Asset Managem HorizonMajor ShareholderBuy27$183.56$4,956.001,785,618View SEC Filing Icon  
11/15/2023Kinetics Asset Managem HorizonMajor ShareholderBuy27$186.98$5,048.371,785,564View SEC Filing Icon  
11/13/2023Kinetics Asset Managem HorizonMajor ShareholderBuy27$184.60$4,984.111,785,510View SEC Filing Icon  
11/10/2023Kinetics Asset Managem HorizonMajor ShareholderBuy27$182.33$4,923.001,785,483View SEC Filing Icon  
11/8/2023Kinetics Asset Managem HorizonMajor ShareholderBuy27$183.39$4,951.651,785,429View SEC Filing Icon  
11/7/2023Donald G. CookDirectorBuy45$192.57$8,665.551,386View SEC Filing Icon  
11/6/2023Kinetics Asset Managem HorizonMajor ShareholderBuy27$195.50$5,278.441,785,375View SEC Filing Icon  
11/3/2023Kinetics Asset Managem HorizonMajor ShareholderBuy27$201.00$5,427.031,785,348View SEC Filing Icon  
11/1/2023Kinetics Asset Managem HorizonMajor ShareholderBuy27$204.75$5,528.221,785,294View SEC Filing Icon  
10/30/2023Kinetics Asset Managem HorizonMajor ShareholderBuy9$204.04$1,836.361,785,240View SEC Filing Icon  
10/27/2023Kinetics Asset Managem HorizonMajor ShareholderBuy9$202.17$1,819.571,785,231View SEC Filing Icon  
10/25/2023Kinetics Asset Managem HorizonMajor ShareholderBuy9$206.56$1,859.011,785,213View SEC Filing Icon  
10/23/2023Kinetics Asset Managem HorizonMajor ShareholderBuy27$206.26$5,569.021,785,186View SEC Filing Icon  
10/20/2023Kinetics Asset Managem HorizonMajor ShareholderBuy27$212.64$5,741.251,785,159View SEC Filing Icon  
10/18/2023Kinetics Asset Managem HorizonMajor ShareholderBuy27$219.81$5,934.961,785,105View SEC Filing Icon  
10/16/2023Kinetics Asset Managem HorizonMajor ShareholderBuy27$212.23$5,730.091,785,051View SEC Filing Icon  
10/13/2023Kinetics Asset Managem HorizonMajor ShareholderBuy27$208.31$5,624.341,785,024View SEC Filing Icon  
10/11/2023Kinetics Asset Managem HorizonMajor ShareholderBuy27$205.28$5,542.651,784,970View SEC Filing Icon  
10/9/2023Kinetics Asset Managem HorizonMajor ShareholderBuy27$201.01$5,427.301,784,916View SEC Filing Icon  
10/6/2023Kinetics Asset Managem HorizonMajor ShareholderBuy27$196.39$5,302.561,784,889View SEC Filing Icon  
10/4/2023Kinetics Asset Managem HorizonMajor ShareholderBuy27$195.19$5,270.011,784,835View SEC Filing Icon  
10/2/2023Kinetics Asset Managem HorizonMajor ShareholderBuy27$194.33$5,246.791,784,781View SEC Filing Icon  
9/28/2023Kinetics Asset Managem HorizonMajor ShareholderBuy27$210.16$5,674.381,784,727View SEC Filing Icon  
9/25/2023Kinetics Asset Managem HorizonMajor ShareholderBuy27$206.66$5,579.791,784,646View SEC Filing Icon  
9/21/2023Kinetics Asset Managem HorizonMajor ShareholderBuy27$207.83$5,611.411,784,592View SEC Filing Icon  
9/18/2023Kinetics Asset Managem HorizonMajor ShareholderBuy45$202.18$9,097.951,784,565View SEC Filing Icon  
9/15/2023Murray StahlDirectorBuy27$196.79$5,313.3620,250View SEC Filing Icon  
9/13/2023Murray StahlDirectorBuy27$196.99$5,318.7620,196View SEC Filing Icon  
9/11/2023Murray StahlDirectorBuy27$193.68$5,229.3320,142View SEC Filing Icon  
9/8/2023Micheal W. DobbsVPSell900$205.75$185,177.002,412View SEC Filing Icon  
9/7/2023Murray StahlDirectorBuy27$204.04$5,509.1720,088View SEC Filing Icon  
9/5/2023Murray StahlDirectorBuy27$200.89$5,424.0020,034View SEC Filing Icon  
8/31/2023Murray StahlDirectorBuy27$209.42$5,654.2519,980View SEC Filing Icon  
8/28/2023Murray StahlDirectorBuy27$213.25$5,757.7519,899View SEC Filing Icon  
8/25/2023Murray StahlDirectorBuy27$211.35$5,706.4819,872View SEC Filing Icon  
8/23/2023Murray StahlDirectorBuy27$208.48$5,628.9319,818View SEC Filing Icon  
8/21/2023Murray StahlDirectorBuy27$208.49$5,629.3219,764View SEC Filing Icon  
8/18/2023Murray StahlDirectorBuy27$211.97$5,723.1919,737View SEC Filing Icon  
8/16/2023Murray StahlDirectorBuy27$206.49$5,575.1419,683View SEC Filing Icon  
8/14/2023Murray StahlDirectorBuy27$208.46$5,628.3319,629View SEC Filing Icon  
8/11/2023Murray StahlDirectorBuy27$209.45$5,655.0319,602View SEC Filing Icon  
8/9/2023Murray StahlDirectorBuy27$199.44$5,385.0019,548View SEC Filing Icon  
8/7/2023Murray StahlDirectorBuy27$194.00$5,238.0619,494View SEC Filing Icon  
8/4/2023Murray StahlDirectorBuy27$190.25$5,136.7219,467View SEC Filing Icon  
8/2/2023Murray StahlDirectorBuy27$168.33$4,545.0019,413View SEC Filing Icon  
7/31/2023Murray StahlDirectorBuy27$171.56$4,632.0019,359View SEC Filing Icon  
7/28/2023Murray StahlDirectorBuy27$167.20$4,514.4919,332View SEC Filing Icon  
7/26/2023Murray StahlDirectorBuy27$167.89$4,533.0019,278View SEC Filing Icon  
7/24/2023Murray StahlDirectorBuy27$165.69$4,473.6919,224View SEC Filing Icon  
7/21/2023Murray StahlDirectorBuy27$163.25$4,407.7819,197View SEC Filing Icon  
7/19/2023Murray StahlDirectorBuy27$160.34$4,329.3019,143View SEC Filing Icon  
7/17/2023Murray StahlDirectorBuy27$155.70$4,203.7819,089View SEC Filing Icon  
7/14/2023Murray StahlDirectorBuy27$152.11$4,107.0019,062View SEC Filing Icon  
7/12/2023Murray StahlDirectorBuy27$158.78$4,287.1519,008View SEC Filing Icon  
7/10/2023Murray StahlDirectorBuy27$149.62$4,039.7118,954View SEC Filing Icon  
7/7/2023Murray StahlDirectorBuy27$149.87$4,046.4018,927View SEC Filing Icon  
7/5/2023Murray StahlDirectorBuy27$148.83$4,018.3218,873View SEC Filing Icon  
7/3/2023Murray StahlDirectorBuy27$149.93$4,047.9918,846View SEC Filing Icon  
6/30/2023Murray StahlDirectorBuy27$146.28$3,949.5018,819View SEC Filing Icon  
6/28/2023Murray StahlDirectorBuy27$144.42$3,899.2518,765View SEC Filing Icon  
6/26/2023Murray StahlDirectorBuy27$144.22$3,894.0618,711View SEC Filing Icon  
6/22/2023Murray StahlDirectorBuy27$144.19$3,893.0118,657View SEC Filing Icon  
6/20/2023Murray StahlDirectorBuy27$147.42$3,980.3118,603View SEC Filing Icon  
6/15/2023Murray StahlDirectorBuy27$151.34$4,086.3018,549View SEC Filing Icon  
6/14/2023Kinetics Asset Managem HorizonMajor ShareholderBuy54$147.82$7,982.221,779,057View SEC Filing Icon  
6/12/2023Kinetics Asset Managem HorizonMajor ShareholderBuy54$149.90$8,094.841,778,949View SEC Filing Icon  
6/9/2023Kinetics Asset Managem HorizonMajor ShareholderBuy72$154.77$11,143.521,778,895View SEC Filing Icon  
6/7/2023Kinetics Asset Managem HorizonMajor ShareholderBuy36$158.66$5,711.881,778,742View SEC Filing Icon  
6/5/2023Kinetics Asset Managem HorizonMajor ShareholderBuy18$149.47$2,690.501,778,688View SEC Filing Icon  
6/1/2023Kinetics Asset Managem HorizonMajor ShareholderBuy18$147.70$2,658.601,778,652View SEC Filing Icon  
5/30/2023Kinetics Asset Managem HorizonMajor ShareholderBuy18$145.19$2,613.461,778,616View SEC Filing Icon  
5/26/2023Kinetics Asset Managem HorizonMajor ShareholderBuy18$146.11$2,630.021,778,598View SEC Filing Icon  
5/24/2023Kinetics Asset Managem HorizonMajor ShareholderBuy18$149.55$2,691.981,778,562View SEC Filing Icon  
5/22/2023Kinetics Asset Managem HorizonMajor ShareholderBuy18$151.71$2,730.841,778,526View SEC Filing Icon  
5/19/2023Kinetics Asset Managem HorizonMajor ShareholderBuy18$152.94$2,753.001,778,508View SEC Filing Icon  
5/17/2023Kinetics Asset Managem HorizonMajor ShareholderBuy18$149.57$2,692.341,778,472View SEC Filing Icon  
5/15/2023Kinetics Asset Managem HorizonMajor ShareholderBuy9$152.29$1,370.581,778,445View SEC Filing Icon  
5/12/2023Kinetics Asset Managem HorizonMajor ShareholderBuy9$151.76$1,365.801,778,436View SEC Filing Icon  
5/10/2023Kinetics Asset Managem HorizonMajor ShareholderBuy9$154.02$1,386.191,778,418View SEC Filing Icon  
5/8/2023Kinetics Asset Managem HorizonMajor ShareholderBuy9$155.52$1,399.681,778,400View SEC Filing Icon  
5/5/2023Kinetics Asset Managem HorizonMajor ShareholderBuy9$157.24$1,415.151,778,391View SEC Filing Icon  
See Full Table

SEC Filings (Institutional Ownership Changes) for Texas Pacific Land (NYSE:TPL)

59.94% of Texas Pacific Land stock is owned by institutions. Institutional ownership can be a sign of analyst confidence in the fundamentals of the stock.

Institutional Buying and Selling by Quarter

This chart shows the instiutional buying and selling at TPL by year and by quarter.

Skip Institutional Buying and Selling Chart and Table DataRead Chart Data in Institutional Trading History Table

Texas Pacific Land Institutional Trading History

Reporting DateHedge FundShares HeldMarket Value% of PortfolioQuarterly Change in SharesOwnership in CompanyDetails
5/5/2026Sigma Planning Corp568$0.27M0.0%-10.6%0.001%Search for SEC Filing on Google Icon
5/5/2026Roberts Glore & Co. Inc. IL724$0.34M0.1%N/A0.001%Search for SEC Filing on Google Icon
5/4/2026Archer Investment Corp3,694$1.75M0.4%+2.1%0.005%Search for SEC Filing on Google Icon
5/4/2026HBW Advisory Services LLC702$0.33M0.0%N/A0.001%Search for SEC Filing on Google Icon
5/4/2026State of Michigan Retirement System19,600$9.30M0.0%-1.0%0.028%Search for SEC Filing on Google Icon
5/4/2026Principal Financial Group Inc.71,343$33.86M0.0%+2.9%0.103%Search for SEC Filing on Google Icon
5/4/2026Schwartz Investment Counsel Inc.410,926$195.01M6.9%-13.5%0.596%Search for SEC Filing on Google Icon
5/4/2026Chicago Partners Investment Group LLC1,345$0.59M0.0%+2.7%0.002%Search for SEC Filing on Google Icon
5/4/2026Procyon Advisors LLC466$0.22M0.0%N/A0.001%Search for SEC Filing on Google Icon
5/2/2026Diversify Wealth Management LLC2,198$0.97M0.0%N/A0.003%Search for SEC Filing on Google Icon
5/2/2026Pittenger & Anderson Inc.6,224$2.95M0.1%+3.6%0.009%Search for SEC Filing on Google Icon
5/1/2026Citizens Financial Group Inc. RI2,058$0.98M0.0%-3.2%0.003%Search for SEC Filing on Google Icon
5/1/2026Fifth Third Bancorp8,452$4.01M0.0%+1,593.8%0.012%Search for SEC Filing on Google Icon
5/1/2026Candriam S.C.A.4,050$1.92M0.0%+17.1%0.006%Search for SEC Filing on Google Icon
5/1/2026Sequoia Financial Advisors LLC22,085$10.48M0.1%+1,358.7%0.032%Search for SEC Filing on Google Icon
5/1/2026Villere ST Denis J & Co. LLC3,100$1.47M0.2%-8.1%0.004%Search for SEC Filing on Google Icon
5/1/2026KLCM Advisors Inc.25,990$12.33M1.0%-11.9%0.038%Search for SEC Filing on Google Icon
4/30/2026Costello Asset Management INC515$0.24M0.1%+92.9%0.001%Search for SEC Filing on Google Icon
4/30/2026Hsbc Holdings PLC99,373$47.09M0.0%+11.6%0.144%Search for SEC Filing on Google Icon
4/30/2026Griffin Asset Management Inc.1,800$0.85M0.1%-6.7%0.003%Search for SEC Filing on Google Icon
4/30/2026Kestra Advisory Services LLC19,299$9.16M0.0%-12.5%0.028%Search for SEC Filing on Google Icon
4/30/2026Azzad Asset Management Inc. ADV11,186$5.31M0.5%+0.4%0.016%Search for SEC Filing on Google Icon
4/30/2026Sumitomo Mitsui Trust Group Inc.124,402$59.04M0.0%-7.0%0.180%Search for SEC Filing on Google Icon
4/30/2026Resona Asset Management Co. Ltd.18,293$8.66M0.0%+1.3%0.027%Search for SEC Filing on Google Icon
4/30/2026SwitchPoint Financial Planning LLC1,158$0.55M0.4%+2.2%0.002%Search for SEC Filing on Google Icon
4/30/2026Atlas Wealth Partners LLC39,849$18.91M19.4%+0.2%0.058%Search for SEC Filing on Google Icon
4/29/2026Clare Market Investments LLC30,406$14.43M3.0%N/A0.044%Search for SEC Filing on Google Icon
4/29/2026Burney Co.650$0.31M0.0%N/A0.001%Search for SEC Filing on Google Icon
4/28/2026Hodges Capital Management Inc.105,315$49.98M4.1%+1.0%0.153%Search for SEC Filing on Google Icon
4/28/2026Abel Hall LLC441$0.21M0.0%N/A0.001%Search for SEC Filing on Google Icon
4/28/2026Stephens Inc. AR2,001$0.95M0.0%-7.5%0.003%Search for SEC Filing on Google Icon
4/28/2026Peak Financial Management Inc.531$0.25M0.1%N/A0.001%Search for SEC Filing on Google Icon
4/28/2026NBT Bank N A NY487$0.23M0.0%-39.9%0.001%Search for SEC Filing on Google Icon
4/28/2026Praxis Investment Management Inc.2,846$1.35M0.1%+1.6%0.004%Search for SEC Filing on Google Icon
4/28/2026V Square Quantitative Management LLC879$0.42M0.0%-21.9%0.001%Search for SEC Filing on Google Icon
4/28/2026Hunter Associates Investment Management LLC11,094$5.26M0.7%-9.1%0.016%Search for SEC Filing on Google Icon
4/28/2026Nixon Peabody Trust Co.900$0.43M0.0%-25.0%0.001%Search for SEC Filing on Google Icon
4/28/2026Vivid Wealth Management LLC4,784$2.27M0.9%N/A0.007%Search for SEC Filing on Google Icon
4/28/2026QRG Capital Management Inc.476$0.23M0.0%N/A0.001%Search for SEC Filing on Google Icon
4/27/2026Hendershot Investments Inc.2,828$1.34M0.2%-17.1%0.004%Search for SEC Filing on Google Icon
4/27/2026HB Wealth Management LLC4,469$2.12M0.0%+4.0%0.006%Search for SEC Filing on Google Icon
4/27/2026IRON Financial LLC427$0.20M0.1%-38.9%0.001%Search for SEC Filing on Google Icon
4/27/2026First Dallas Securities Inc.59,555$28.26M10.5%-7.9%0.086%Search for SEC Filing on Google Icon
4/27/2026New York State Teachers Retirement System42,867$20.34M0.0%+10.4%0.062%Search for SEC Filing on Google Icon
4/27/2026Sierra Summit Advisors LLC2,578$1.22M0.2%N/A0.004%Search for SEC Filing on Google Icon
4/27/2026Private Advisor Group LLC13,959$6.62M0.0%+3.5%0.020%Search for SEC Filing on Google Icon
4/27/2026MOR Wealth Management LLC11,573$5.49M2.5%-13.9%0.017%Search for SEC Filing on Google Icon
4/27/2026Elevation Point Wealth Partners LLC2,266$1.08M0.0%-24.9%0.003%Search for SEC Filing on Google Icon
4/25/2026Keybank National Association OH516$0.25M0.0%N/A0.001%Search for SEC Filing on Google Icon
4/24/2026Root Financial Partners LLC494$0.23M0.0%+16.0%0.001%Search for SEC Filing on Google Icon
4/24/2026Petros Family Wealth LLC626$0.30M0.2%N/A0.001%Search for SEC Filing on Google Icon
4/24/2026Essex Financial Services Inc.47,828$22.70M1.3%+5.1%0.069%Search for SEC Filing on Google Icon
4/24/2026IFM Investors Pty Ltd12,608$5.98M0.1%-4.3%0.018%Search for SEC Filing on Google Icon
4/24/2026North Point Portfolio Managers Corp OH29,173$13.84M2.5%-17.7%0.042%Search for SEC Filing on Google Icon
4/23/2026Cross Staff Investments Inc2,745$1.30M0.8%+6.8%0.004%Search for SEC Filing on Google Icon
4/23/2026Mad River Investors285,120$135.31M48.7%-0.3%0.414%Search for SEC Filing on Google Icon
4/23/2026Inspire Investing LLC18,504$8.78M0.7%+5.0%0.027%Search for SEC Filing on Google Icon
4/23/2026Lansforsakringar Fondforvaltning AB publ 24,107$11.44M0.1%+38.3%0.035%Search for SEC Filing on Google Icon
4/23/2026Apollon Wealth Management LLC4,416$2.10M0.0%+8.6%0.006%Search for SEC Filing on Google Icon
4/23/2026Formidable Asset Management LLC803$0.38M0.1%-56.0%0.001%Search for SEC Filing on Google Icon
4/22/2026Patton Fund Management Inc.698$0.33M0.1%-6.2%0.001%Search for SEC Filing on Google Icon
4/22/2026Pictet Asset Management Holding SA23,291$11.05M0.0%-5.1%0.034%Search for SEC Filing on Google Icon
4/22/2026Realta Investment Advisors2,408$1.14M0.4%N/A0.003%Search for SEC Filing on Google Icon
4/21/2026Maridea Wealth Management LLC442$0.21M0.0%N/A0.001%Search for SEC Filing on Google Icon
4/21/2026Wesbanco Bank Inc.567$0.27M0.0%N/A0.001%Search for SEC Filing on Google Icon
4/21/2026Penn Davis Mcfarland Inc.450$0.21M0.0%N/A0.001%Search for SEC Filing on Google Icon
4/21/2026Louisiana State Employees Retirement System3,000$1.42M0.0%N/A0.004%Search for SEC Filing on Google Icon
4/20/2026Kestra Private Wealth Services LLC2,202$1.05M0.0%N/A0.003%Search for SEC Filing on Google Icon
4/20/2026Ritholtz Wealth Management1,382$0.66M0.0%-10.6%0.002%Search for SEC Filing on Google Icon
4/20/2026Watchman Group Inc.9,494$4.51M1.1%+10.6%0.014%Search for SEC Filing on Google Icon
4/20/2026Assenagon Asset Management S.A.2,440$1.16M0.0%-4.8%0.004%Search for SEC Filing on Google Icon
4/18/2026Bar Harbor Wealth Management35,533$16.86M1.0%-3.6%0.052%Search for SEC Filing on Google Icon
4/17/2026Krilogy Financial LLC2,068$0.98M0.0%-49.5%0.003%Search for SEC Filing on Google Icon
4/17/2026PKO Investment Management Joint Stock Co2,030$0.96M0.1%+27.7%0.003%Search for SEC Filing on Google Icon
4/16/2026Lee Johnson Capital Management LLC1,380$0.66M0.2%N/A0.002%Search for SEC Filing on Google Icon
4/16/2026SG Americas Securities LLC46,957$22.28M0.0%+408.5%0.068%Search for SEC Filing on Google Icon
4/16/2026Allegheny Financial Group2,087$0.99M0.1%-4.4%0.003%Search for SEC Filing on Google Icon
4/16/2026Meadowbrook Advisors Group LLC450$0.21M0.1%N/A0.001%Search for SEC Filing on Google Icon
4/16/2026BI Asset Management Fondsmaeglerselskab A S311$0.15M0.0%-85.7%0.000%Search for SEC Filing on Google Icon
4/16/2026Diversified Trust Co2,729$1.30M0.0%N/A0.004%Search for SEC Filing on Google Icon
3/20/2026Hsbc Holdings PLC89,071$25.59M0.0%+209.9%0.129%Search for SEC Filing on Google Icon
3/17/2026Rockefeller Capital Management L.P.7,336$2.11M0.0%+82.3%0.011%Search for SEC Filing on Google Icon
3/9/2026Corient Private Wealth LLC17,888$5.14M0.0%+131.7%0.026%Search for SEC Filing on Google Icon
3/6/2026Hsbc Holdings PLC89,071$25.59M0.0%+209.9%0.129%Search for SEC Filing on Google Icon
3/6/2026Redwood Family Wealth LLC15,920$4.57M4.5%N/A0.023%Search for SEC Filing on Google Icon
3/2/2026NCM Capital Management LLC30,248$8.69M3.2%+200.1%0.044%Search for SEC Filing on Google Icon
2/27/2026Cross Staff Investments Inc2,570$0.74M0.4%+194.7%0.004%Search for SEC Filing on Google Icon
2/27/2026Groupama Asset Managment2,247$0.65M0.0%+171.4%0.003%Search for SEC Filing on Google Icon
2/24/2026Pacer Advisors Inc.43,757$12.57M0.0%+302.2%0.063%Search for SEC Filing on Google Icon
2/23/2026Continental Investors Services Inc.2,180$0.63M0.8%+197.0%0.003%Search for SEC Filing on Google Icon
2/19/2026Claris Financial LLC1,743$0.50M0.3%N/A0.003%Search for SEC Filing on Google Icon
2/19/2026TMB Capital Partners LLC25,560$7.34M2.5%N/A0.037%Search for SEC Filing on Google Icon
2/19/2026Invesco Ltd.855,816$245.81M0.0%+201.4%1.241%Search for SEC Filing on Google Icon
2/19/2026Corient Private Wealth LLC17,882$5.14M0.0%+131.6%0.026%Search for SEC Filing on Google Icon
2/19/2026Alberta Investment Management Corp4,200$1.21M0.0%N/A0.006%Search for SEC Filing on Google Icon
2/18/2026Mercer Global Advisors Inc. ADV13,392$3.85M0.0%+184.6%0.019%Search for SEC Filing on Google Icon
2/18/2026Vident Advisory LLC4,038$1.16M0.0%+121.9%0.006%Search for SEC Filing on Google Icon
2/18/2026Beacon Pointe Advisors LLC15,625$4.49M0.0%+227.6%0.023%Search for SEC Filing on Google Icon
2/18/2026State of Tennessee Department of Treasury18,114$5.20M0.0%+262.6%0.026%Search for SEC Filing on Google Icon
2/18/2026EP Wealth Advisors LLC1,636$0.47M0.0%N/A0.002%Search for SEC Filing on Google Icon
Data available starting January 2016

See Full Table
Texas Pacific Land logo
Texas Pacific Land Corporation engages in the land and resource management, and water services and operations businesses. The company owns a 1/128th nonparticipating perpetual oil and gas royalty interest (NPRI) under approximately 85,000 acres of land; a 1/16th NPRI under approximately 371,000 acres of land; and approximately 4,000 additional net royalty acres, total of approximately 195,000 NRA located in the western part of Texas. The Land and Resource Management segment manages surface acres of land, and oil and gas royalty interest in West Texas. This segment also engages in easements, such as transporting oil, gas and related hydrocarbons, power line and utility, and subsurface wellbore easements. In addition, this segment leases its land for processing, storage, and compression facilities and roads; and is involved in sale of materials, such as caliche, sand, and other material, as well as sells land. The Water Services and Operations segment provides full-service water offerings, including water sourcing, produced-water treatment, infrastructure development, and disposal solutions to operators in the Permian Basin. This segment also holds produced water royalties. Texas Pacific Land Corporation was founded in 1888 and is headquartered in Dallas, Texas.
Read More on Texas Pacific Land

Today's Range

Now: $433.22
Low: $432.13
High: $442.29

50 Day Range

MA: $481.54
Low: $378.49
High: $539.11

52 Week Range

Now: $433.22
Low: $269.23
High: $547.20

Volume

286,475 shs

Average Volume

472,402 shs

Market Capitalization

$29.87 billion

P/E Ratio

62.09

Dividend Yield

0.55%

Beta

0.66

Who are the company insiders with the largest holdings of Texas Pacific Land?

Texas Pacific Land's top insider shareholders include:
  1. Kinetics Asset Managem Horizon (Major Shareholder)
  2. Murray Stahl (Director)
  3. Eric L Oliver (Director)
  4. Maurice Meyer III (Insider)
  5. Chris Steddum (CFO)
  6. Micheal W Dobbs (VP)
  7. Donna E Epps (Director)
  8. David E Barry (Insider)
  9. Tyler Glover (CEO)
  10. Stephanie Buffington (CAO)
Learn More about top insider investors at Texas Pacific Land.

Who are the major institutional investors of Texas Pacific Land?

Texas Pacific Land's top institutional investors include:
  1. Schwartz Investment Counsel Inc. — 0.60%
  2. Mad River Investors — 0.41%
  3. Sumitomo Mitsui Trust Group Inc. — 0.18%
  4. Hodges Capital Management Inc. — 0.15%
  5. Hsbc Holdings PLC — 0.14%
  6. Principal Financial Group Inc. — 0.10%
Learn More about top institutional investors of Texas Pacific Land stock.

Which institutional investors are selling Texas Pacific Land stock?

In the previous quarter, TPL stock was sold by these institutional investors:
  1. Schwartz Investment Counsel Inc.
  2. Sumitomo Mitsui Trust Group Inc.
  3. North Point Portfolio Managers Corp OH
  4. First Dallas Securities Inc.
  5. KLCM Advisors Inc.
  6. Kestra Advisory Services LLC
  7. Krilogy Financial LLC
  8. BI Asset Management Fondsmaeglerselskab A S

Which institutional investors are buying Texas Pacific Land stock?

Within the last quarter, TPL stock was acquired by institutional investors including:
  1. SG Americas Securities LLC
  2. Clare Market Investments LLC
  3. Sequoia Financial Advisors LLC
  4. Hsbc Holdings PLC
  5. Fifth Third Bancorp
  6. Lansforsakringar Fondforvaltning AB publ
  7. Vivid Wealth Management LLC
  8. New York State Teachers Retirement System
Within the last year, these company insiders have bought Texas Pacific Land stock:
  1. Kinetics Asset Managem Horizon (Major Shareholder)
  2. Murray Stahl (Director)
  3. Eric L Oliver (Director)
  4. Donna E Epps (Director)
  5. Donald G Cook (Director)
Learn More investors buying Texas Pacific Land stock.